sensor_id;sensor_type;location;lat;lon;timestamp;P1;durP1;ratioP1;P2;durP2;ratioP2
14080;SDS011;7116;52.152;5.392;2023-03-20T00:00:38;9.90;;;5.67;;
14080;SDS011;7116;52.152;5.392;2023-03-20T00:03:05;12.65;;;6.20;;
14080;SDS011;7116;52.152;5.392;2023-03-20T00:05:30;13.20;;;6.27;;
14080;SDS011;7116;52.152;5.392;2023-03-20T00:07:56;15.17;;;6.60;;
14080;SDS011;7116;52.152;5.392;2023-03-20T00:10:24;13.53;;;6.20;;
14080;SDS011;7116;52.152;5.392;2023-03-20T00:12:49;15.80;;;6.18;;
14080;SDS011;7116;52.152;5.392;2023-03-20T00:15:20;13.65;;;6.15;;
14080;SDS011;7116;52.152;5.392;2023-03-20T00:17:46;13.27;;;6.45;;
14080;SDS011;7116;52.152;5.392;2023-03-20T00:20:15;11.60;;;6.95;;
14080;SDS011;7116;52.152;5.392;2023-03-20T00:22:40;12.13;;;6.90;;
14080;SDS011;7116;52.152;5.392;2023-03-20T00:25:05;11.37;;;7.20;;
14080;SDS011;7116;52.152;5.392;2023-03-20T00:27:31;13.20;;;7.03;;
14080;SDS011;7116;52.152;5.392;2023-03-20T00:29:56;13.63;;;8.07;;
14080;SDS011;7116;52.152;5.392;2023-03-20T00:32:21;13.47;;;7.70;;
14080;SDS011;7116;52.152;5.392;2023-03-20T00:34:47;13.00;;;8.13;;
14080;SDS011;7116;52.152;5.392;2023-03-20T00:37:12;17.57;;;8.50;;
14080;SDS011;7116;52.152;5.392;2023-03-20T00:39:37;18.17;;;8.67;;
14080;SDS011;7116;52.152;5.392;2023-03-20T00:42:03;16.93;;;8.27;;
14080;SDS011;7116;52.152;5.392;2023-03-20T00:44:33;18.17;;;8.95;;
14080;SDS011;7116;52.152;5.392;2023-03-20T00:47:03;16.40;;;9.90;;
14080;SDS011;7116;52.152;5.392;2023-03-20T00:49:30;16.23;;;9.23;;
14080;SDS011;7116;52.152;5.392;2023-03-20T00:51:56;16.87;;;9.43;;
14080;SDS011;7116;52.152;5.392;2023-03-20T00:54:22;17.65;;;10.10;;
14080;SDS011;7116;52.152;5.392;2023-03-20T00:56:50;16.87;;;9.73;;
14080;SDS011;7116;52.152;5.392;2023-03-20T00:59:17;15.05;;;9.10;;
14080;SDS011;7116;52.152;5.392;2023-03-20T01:01:45;14.85;;;8.32;;
14080;SDS011;7116;52.152;5.392;2023-03-20T01:04:11;12.70;;;8.23;;
14080;SDS011;7116;52.152;5.392;2023-03-20T01:06:37;15.10;;;8.02;;
14080;SDS011;7116;52.152;5.392;2023-03-20T01:09:02;15.10;;;8.00;;
14080;SDS011;7116;52.152;5.392;2023-03-20T01:11:28;14.60;;;7.70;;
14080;SDS011;7116;52.152;5.392;2023-03-20T01:13:53;15.50;;;7.83;;
14080;SDS011;7116;52.152;5.392;2023-03-20T01:16:19;14.63;;;7.03;;
14080;SDS011;7116;52.152;5.392;2023-03-20T01:18:45;13.07;;;7.18;;
14080;SDS011;7116;52.152;5.392;2023-03-20T01:21:11;11.40;;;7.03;;
14080;SDS011;7116;52.152;5.392;2023-03-20T01:23:36;12.33;;;7.33;;
14080;SDS011;7116;52.152;5.392;2023-03-20T01:26:01;11.77;;;8.20;;
14080;SDS011;7116;52.152;5.392;2023-03-20T01:28:26;13.07;;;7.90;;
14080;SDS011;7116;52.152;5.392;2023-03-20T01:30:53;13.15;;;7.32;;
14080;SDS011;7116;52.152;5.392;2023-03-20T01:33:19;13.83;;;7.87;;
14080;SDS011;7116;52.152;5.392;2023-03-20T01:35:45;11.13;;;7.82;;
14080;SDS011;7116;52.152;5.392;2023-03-20T01:38:20;14.05;;;7.38;;
14080;SDS011;7116;52.152;5.392;2023-03-20T01:43:21;13.23;;;8.02;;
14080;SDS011;7116;52.152;5.392;2023-03-20T01:48:53;13.55;;;7.00;;
14080;SDS011;7116;52.152;5.392;2023-03-20T01:51:17;10.82;;;7.32;;
14080;SDS011;7116;52.152;5.392;2023-03-20T01:53:43;11.60;;;7.40;;
14080;SDS011;7116;52.152;5.392;2023-03-20T01:56:09;13.15;;;7.53;;
14080;SDS011;7116;52.152;5.392;2023-03-20T01:58:37;11.07;;;6.93;;
14080;SDS011;7116;52.152;5.392;2023-03-20T02:01:03;12.65;;;6.65;;
14080;SDS011;7116;52.152;5.392;2023-03-20T02:03:28;11.13;;;6.32;;
14080;SDS011;7116;52.152;5.392;2023-03-20T02:05:54;10.07;;;6.53;;
14080;SDS011;7116;52.152;5.392;2023-03-20T02:08:24;14.27;;;6.80;;
14080;SDS011;7116;52.152;5.392;2023-03-20T02:10:51;9.57;;;5.75;;
14080;SDS011;7116;52.152;5.392;2023-03-20T02:13:16;12.60;;;6.20;;
14080;SDS011;7116;52.152;5.392;2023-03-20T02:18:37;7.95;;;5.72;;
14080;SDS011;7116;52.152;5.392;2023-03-20T02:28:35;11.38;;;5.03;;
14080;SDS011;7116;52.152;5.392;2023-03-20T02:39:18;10.90;;;6.05;;
14080;SDS011;7116;52.152;5.392;2023-03-20T02:41:59;12.73;;;5.63;;
14080;SDS011;7116;52.152;5.392;2023-03-20T02:57:35;11.02;;;5.68;;
14080;SDS011;7116;52.152;5.392;2023-03-20T03:00:08;12.80;;;6.00;;
14080;SDS011;7116;52.152;5.392;2023-03-20T03:02:36;17.23;;;7.63;;
14080;SDS011;7116;52.152;5.392;2023-03-20T03:05:04;13.97;;;6.63;;
14080;SDS011;7116;52.152;5.392;2023-03-20T03:07:32;11.75;;;6.43;;
14080;SDS011;7116;52.152;5.392;2023-03-20T03:10:00;15.25;;;6.30;;
14080;SDS011;7116;52.152;5.392;2023-03-20T03:12:28;10.13;;;6.43;;
14080;SDS011;7116;52.152;5.392;2023-03-20T03:14:55;15.65;;;7.28;;
14080;SDS011;7116;52.152;5.392;2023-03-20T03:17:22;16.07;;;7.73;;
14080;SDS011;7116;52.152;5.392;2023-03-20T03:19:49;17.65;;;8.45;;
14080;SDS011;7116;52.152;5.392;2023-03-20T03:22:16;15.23;;;7.35;;
14080;SDS011;7116;52.152;5.392;2023-03-20T03:24:43;15.63;;;7.80;;
14080;SDS011;7116;52.152;5.392;2023-03-20T03:27:12;15.27;;;8.88;;
14080;SDS011;7116;52.152;5.392;2023-03-20T03:29:41;17.33;;;7.90;;
14080;SDS011;7116;52.152;5.392;2023-03-20T03:32:18;19.10;;;8.93;;
14080;SDS011;7116;52.152;5.392;2023-03-20T03:34:44;19.23;;;9.68;;
14080;SDS011;7116;52.152;5.392;2023-03-20T03:37:17;16.85;;;9.13;;
14080;SDS011;7116;52.152;5.392;2023-03-20T03:47:28;17.67;;;9.65;;
14080;SDS011;7116;52.152;5.392;2023-03-20T03:49:57;20.38;;;9.52;;
14080;SDS011;7116;52.152;5.392;2023-03-20T03:52:24;15.15;;;9.43;;
14080;SDS011;7116;52.152;5.392;2023-03-20T03:54:51;19.13;;;10.27;;
14080;SDS011;7116;52.152;5.392;2023-03-20T03:57:19;20.80;;;10.13;;
14080;SDS011;7116;52.152;5.392;2023-03-20T03:59:46;21.92;;;10.65;;
14080;SDS011;7116;52.152;5.392;2023-03-20T04:02:13;24.73;;;11.48;;
14080;SDS011;7116;52.152;5.392;2023-03-20T04:04:44;24.15;;;10.63;;
14080;SDS011;7116;52.152;5.392;2023-03-20T04:07:10;26.55;;;11.20;;
14080;SDS011;7116;52.152;5.392;2023-03-20T04:09:37;22.10;;;10.30;;
14080;SDS011;7116;52.152;5.392;2023-03-20T04:12:02;28.90;;;12.37;;
14080;SDS011;7116;52.152;5.392;2023-03-20T04:14:27;20.77;;;11.17;;
14080;SDS011;7116;52.152;5.392;2023-03-20T04:16:52;19.87;;;10.57;;
14080;SDS011;7116;52.152;5.392;2023-03-20T04:19:18;23.77;;;10.07;;
14080;SDS011;7116;52.152;5.392;2023-03-20T04:21:43;23.83;;;11.40;;
14080;SDS011;7116;52.152;5.392;2023-03-20T04:24:09;22.65;;;10.95;;
14080;SDS011;7116;52.152;5.392;2023-03-20T04:26:34;19.03;;;11.17;;
14080;SDS011;7116;52.152;5.392;2023-03-20T04:28:59;20.30;;;11.13;;
14080;SDS011;7116;52.152;5.392;2023-03-20T04:31:25;18.92;;;10.93;;
14080;SDS011;7116;52.152;5.392;2023-03-20T04:33:52;23.63;;;11.48;;
14080;SDS011;7116;52.152;5.392;2023-03-20T04:36:17;25.27;;;11.77;;
14080;SDS011;7116;52.152;5.392;2023-03-20T04:38:42;20.38;;;11.38;;
14080;SDS011;7116;52.152;5.392;2023-03-20T04:41:08;17.93;;;11.27;;
14080;SDS011;7116;52.152;5.392;2023-03-20T04:43:33;20.73;;;11.43;;
14080;SDS011;7116;52.152;5.392;2023-03-20T04:45:58;19.20;;;9.63;;
14080;SDS011;7116;52.152;5.392;2023-03-20T04:48:23;25.83;;;11.30;;
14080;SDS011;7116;52.152;5.392;2023-03-20T04:50:48;18.90;;;11.10;;
14080;SDS011;7116;52.152;5.392;2023-03-20T04:53:15;22.55;;;12.40;;
14080;SDS011;7116;52.152;5.392;2023-03-20T04:55:40;20.58;;;11.10;;
14080;SDS011;7116;52.152;5.392;2023-03-20T04:58:05;20.17;;;11.17;;
14080;SDS011;7116;52.152;5.392;2023-03-20T05:00:31;22.40;;;11.93;;
14080;SDS011;7116;52.152;5.392;2023-03-20T05:02:56;27.57;;;12.33;;
14080;SDS011;7116;52.152;5.392;2023-03-20T05:05:21;21.47;;;13.10;;
14080;SDS011;7116;52.152;5.392;2023-03-20T05:07:47;26.95;;;12.75;;
14080;SDS011;7116;52.152;5.392;2023-03-20T05:10:12;23.23;;;12.43;;
14080;SDS011;7116;52.152;5.392;2023-03-20T05:12:38;17.13;;;10.80;;
14080;SDS011;7116;52.152;5.392;2023-03-20T05:15:03;20.30;;;12.27;;
14080;SDS011;7116;52.152;5.392;2023-03-20T05:17:28;18.53;;;11.03;;
14080;SDS011;7116;52.152;5.392;2023-03-20T05:19:53;23.33;;;12.37;;
14080;SDS011;7116;52.152;5.392;2023-03-20T05:22:18;22.27;;;12.83;;
14080;SDS011;7116;52.152;5.392;2023-03-20T05:24:44;22.97;;;12.07;;
14080;SDS011;7116;52.152;5.392;2023-03-20T05:27:09;26.83;;;12.50;;
14080;SDS011;7116;52.152;5.392;2023-03-20T05:29:34;20.00;;;11.00;;
14080;SDS011;7116;52.152;5.392;2023-03-20T05:32:00;20.70;;;12.67;;
14080;SDS011;7116;52.152;5.392;2023-03-20T05:34:25;18.17;;;10.90;;
14080;SDS011;7116;52.152;5.392;2023-03-20T05:36:51;22.98;;;12.73;;
14080;SDS011;7116;52.152;5.392;2023-03-20T05:39:16;22.47;;;12.80;;
14080;SDS011;7116;52.152;5.392;2023-03-20T05:41:42;23.93;;;12.03;;
14080;SDS011;7116;52.152;5.392;2023-03-20T05:44:07;25.10;;;13.53;;
14080;SDS011;7116;52.152;5.392;2023-03-20T05:46:32;19.17;;;11.87;;
14080;SDS011;7116;52.152;5.392;2023-03-20T05:48:57;21.70;;;12.23;;
14080;SDS011;7116;52.152;5.392;2023-03-20T05:51:22;23.57;;;12.20;;
14080;SDS011;7116;52.152;5.392;2023-03-20T05:53:48;20.37;;;12.03;;
14080;SDS011;7116;52.152;5.392;2023-03-20T05:56:13;20.87;;;12.33;;
14080;SDS011;7116;52.152;5.392;2023-03-20T05:58:38;21.77;;;12.30;;
14080;SDS011;7116;52.152;5.392;2023-03-20T06:01:03;21.10;;;13.07;;
14080;SDS011;7116;52.152;5.392;2023-03-20T06:03:29;19.53;;;12.07;;
14080;SDS011;7116;52.152;5.392;2023-03-20T06:05:54;19.87;;;12.67;;
14080;SDS011;7116;52.152;5.392;2023-03-20T06:08:19;20.00;;;11.83;;
14080;SDS011;7116;52.152;5.392;2023-03-20T06:10:44;22.90;;;12.38;;
14080;SDS011;7116;52.152;5.392;2023-03-20T06:13:10;20.97;;;11.97;;
14080;SDS011;7116;52.152;5.392;2023-03-20T06:15:35;18.53;;;11.20;;
14080;SDS011;7116;52.152;5.392;2023-03-20T06:18:00;20.53;;;12.57;;
14080;SDS011;7116;52.152;5.392;2023-03-20T06:20:25;21.47;;;11.83;;
14080;SDS011;7116;52.152;5.392;2023-03-20T06:22:51;16.50;;;11.10;;
14080;SDS011;7116;52.152;5.392;2023-03-20T06:25:16;21.73;;;11.97;;
14080;SDS011;7116;52.152;5.392;2023-03-20T06:27:41;20.20;;;11.90;;
14080;SDS011;7116;52.152;5.392;2023-03-20T06:30:07;18.30;;;9.70;;
14080;SDS011;7116;52.152;5.392;2023-03-20T06:32:33;19.77;;;11.45;;
14080;SDS011;7116;52.152;5.392;2023-03-20T06:34:58;23.43;;;11.50;;
14080;SDS011;7116;52.152;5.392;2023-03-20T06:37:23;18.83;;;11.73;;
14080;SDS011;7116;52.152;5.392;2023-03-20T06:39:48;18.40;;;10.80;;
14080;SDS011;7116;52.152;5.392;2023-03-20T06:42:14;21.40;;;11.57;;
14080;SDS011;7116;52.152;5.392;2023-03-20T06:44:39;20.05;;;12.88;;
14080;SDS011;7116;52.152;5.392;2023-03-20T06:47:04;20.97;;;12.40;;
14080;SDS011;7116;52.152;5.392;2023-03-20T06:49:30;23.50;;;11.10;;
14080;SDS011;7116;52.152;5.392;2023-03-20T06:51:55;24.53;;;11.00;;
14080;SDS011;7116;52.152;5.392;2023-03-20T06:54:21;21.30;;;11.83;;
14080;SDS011;7116;52.152;5.392;2023-03-20T06:56:46;20.67;;;12.57;;
14080;SDS011;7116;52.152;5.392;2023-03-20T06:59:11;19.57;;;11.17;;
14080;SDS011;7116;52.152;5.392;2023-03-20T07:01:36;19.13;;;10.93;;
14080;SDS011;7116;52.152;5.392;2023-03-20T07:04:01;16.77;;;10.20;;
14080;SDS011;7116;52.152;5.392;2023-03-20T07:06:27;20.00;;;11.63;;
14080;SDS011;7116;52.152;5.392;2023-03-20T07:08:52;19.33;;;11.23;;
14080;SDS011;7116;52.152;5.392;2023-03-20T07:11:17;25.40;;;12.00;;
14080;SDS011;7116;52.152;5.392;2023-03-20T07:13:42;23.57;;;12.03;;
14080;SDS011;7116;52.152;5.392;2023-03-20T07:16:08;19.43;;;11.00;;
14080;SDS011;7116;52.152;5.392;2023-03-20T07:18:33;21.10;;;10.15;;
14080;SDS011;7116;52.152;5.392;2023-03-20T07:20:59;19.15;;;11.23;;
14080;SDS011;7116;52.152;5.392;2023-03-20T07:23:26;21.67;;;12.17;;
14080;SDS011;7116;52.152;5.392;2023-03-20T07:25:51;18.08;;;11.00;;
14080;SDS011;7116;52.152;5.392;2023-03-20T07:28:16;16.40;;;10.00;;
14080;SDS011;7116;52.152;5.392;2023-03-20T07:30:42;19.27;;;9.90;;
14080;SDS011;7116;52.152;5.392;2023-03-20T07:33:07;17.43;;;10.87;;
14080;SDS011;7116;52.152;5.392;2023-03-20T07:35:33;17.27;;;8.57;;
14080;SDS011;7116;52.152;5.392;2023-03-20T07:37:58;19.40;;;9.87;;
14080;SDS011;7116;52.152;5.392;2023-03-20T07:40:23;17.33;;;9.63;;
14080;SDS011;7116;52.152;5.392;2023-03-20T07:42:48;18.93;;;10.30;;
14080;SDS011;7116;52.152;5.392;2023-03-20T07:45:14;20.97;;;10.97;;
14080;SDS011;7116;52.152;5.392;2023-03-20T07:47:40;23.42;;;11.80;;
14080;SDS011;7116;52.152;5.392;2023-03-20T07:50:06;21.80;;;11.03;;
14080;SDS011;7116;52.152;5.392;2023-03-20T07:52:31;23.73;;;10.37;;
14080;SDS011;7116;52.152;5.392;2023-03-20T07:54:56;16.13;;;8.87;;
14080;SDS011;7116;52.152;5.392;2023-03-20T07:57:22;22.07;;;9.07;;
14080;SDS011;7116;52.152;5.392;2023-03-20T07:59:47;17.33;;;9.20;;
14080;SDS011;7116;52.152;5.392;2023-03-20T08:02:16;18.93;;;9.27;;
14080;SDS011;7116;52.152;5.392;2023-03-20T08:04:42;20.27;;;9.27;;
14080;SDS011;7116;52.152;5.392;2023-03-20T08:07:07;22.90;;;10.77;;
14080;SDS011;7116;52.152;5.392;2023-03-20T08:09:32;20.33;;;9.60;;
14080;SDS011;7116;52.152;5.392;2023-03-20T08:11:58;18.17;;;9.13;;
14080;SDS011;7116;52.152;5.392;2023-03-20T08:14:23;14.87;;;8.50;;
14080;SDS011;7116;52.152;5.392;2023-03-20T08:16:48;16.83;;;8.53;;
14080;SDS011;7116;52.152;5.392;2023-03-20T08:19:13;17.63;;;9.10;;
14080;SDS011;7116;52.152;5.392;2023-03-20T08:21:39;18.93;;;8.77;;
14080;SDS011;7116;52.152;5.392;2023-03-20T08:24:04;19.27;;;8.97;;
14080;SDS011;7116;52.152;5.392;2023-03-20T08:26:30;20.53;;;8.97;;
14080;SDS011;7116;52.152;5.392;2023-03-20T08:28:55;16.63;;;8.43;;
14080;SDS011;7116;52.152;5.392;2023-03-20T08:31:20;21.00;;;9.13;;
14080;SDS011;7116;52.152;5.392;2023-03-20T08:33:46;16.53;;;8.33;;
14080;SDS011;7116;52.152;5.392;2023-03-20T08:36:11;22.48;;;8.52;;
14080;SDS011;7116;52.152;5.392;2023-03-20T08:38:39;16.53;;;7.80;;
14080;SDS011;7116;52.152;5.392;2023-03-20T08:41:05;16.57;;;7.67;;
14080;SDS011;7116;52.152;5.392;2023-03-20T08:43:30;16.40;;;7.90;;
14080;SDS011;7116;52.152;5.392;2023-03-20T08:45:55;19.07;;;8.97;;
14080;SDS011;7116;52.152;5.392;2023-03-20T08:48:20;15.83;;;8.80;;
14080;SDS011;7116;52.152;5.392;2023-03-20T08:50:45;14.80;;;8.10;;
14080;SDS011;7116;52.152;5.392;2023-03-20T08:53:11;14.53;;;7.53;;
14080;SDS011;7116;52.152;5.392;2023-03-20T08:55:36;17.10;;;8.03;;
14080;SDS011;7116;52.152;5.392;2023-03-20T08:58:02;17.33;;;8.45;;
14080;SDS011;7116;52.152;5.392;2023-03-20T09:00:27;18.53;;;7.47;;
14080;SDS011;7116;52.152;5.392;2023-03-20T09:02:52;20.33;;;8.00;;
14080;SDS011;7116;52.152;5.392;2023-03-20T09:05:17;18.90;;;7.87;;
14080;SDS011;7116;52.152;5.392;2023-03-20T09:07:43;17.47;;;7.47;;
14080;SDS011;7116;52.152;5.392;2023-03-20T09:10:10;20.20;;;7.72;;
14080;SDS011;7116;52.152;5.392;2023-03-20T09:12:35;18.20;;;8.57;;
14080;SDS011;7116;52.152;5.392;2023-03-20T09:15:01;18.53;;;7.37;;
14080;SDS011;7116;52.152;5.392;2023-03-20T09:17:26;16.55;;;7.18;;
14080;SDS011;7116;52.152;5.392;2023-03-20T09:19:52;15.67;;;6.83;;
14080;SDS011;7116;52.152;5.392;2023-03-20T09:22:17;15.13;;;7.10;;
14080;SDS011;7116;52.152;5.392;2023-03-20T09:24:43;12.43;;;6.10;;
14080;SDS011;7116;52.152;5.392;2023-03-20T09:27:08;15.32;;;8.07;;
14080;SDS011;7116;52.152;5.392;2023-03-20T09:29:33;11.57;;;6.70;;
14080;SDS011;7116;52.152;5.392;2023-03-20T09:31:58;20.23;;;7.47;;
14080;SDS011;7116;52.152;5.392;2023-03-20T09:34:24;13.10;;;6.33;;
14080;SDS011;7116;52.152;5.392;2023-03-20T09:36:49;15.90;;;6.67;;
14080;SDS011;7116;52.152;5.392;2023-03-20T09:39:14;17.77;;;6.60;;
14080;SDS011;7116;52.152;5.392;2023-03-20T09:41:39;11.80;;;6.40;;
14080;SDS011;7116;52.152;5.392;2023-03-20T09:51:54;15.07;;;6.57;;
14080;SDS011;7116;52.152;5.392;2023-03-20T09:56:45;14.77;;;7.03;;
14080;SDS011;7116;52.152;5.392;2023-03-20T09:59:10;21.33;;;7.57;;
14080;SDS011;7116;52.152;5.392;2023-03-20T10:01:41;15.63;;;6.63;;
14080;SDS011;7116;52.152;5.392;2023-03-20T10:04:08;14.53;;;6.07;;
14080;SDS011;7116;52.152;5.392;2023-03-20T10:06:33;12.18;;;5.38;;
14080;SDS011;7116;52.152;5.392;2023-03-20T10:08:59;13.97;;;6.10;;
14080;SDS011;7116;52.152;5.392;2023-03-20T10:11:39;11.70;;;6.00;;
14080;SDS011;7116;52.152;5.392;2023-03-20T10:22:01;15.95;;;5.95;;
14080;SDS011;7116;52.152;5.392;2023-03-20T10:24:35;14.30;;;5.82;;
14080;SDS011;7116;52.152;5.392;2023-03-20T10:27:09;12.63;;;6.20;;
14080;SDS011;7116;52.152;5.392;2023-03-20T10:29:53;11.25;;;6.60;;
14080;SDS011;7116;52.152;5.392;2023-03-20T10:37:50;16.20;;;7.93;;
14080;SDS011;7116;52.152;5.392;2023-03-20T10:40:28;17.70;;;8.03;;
14080;SDS011;7116;52.152;5.392;2023-03-20T10:43:00;16.45;;;6.20;;
14080;SDS011;7116;52.152;5.392;2023-03-20T10:45:28;18.13;;;7.22;;
14080;SDS011;7116;52.152;5.392;2023-03-20T10:47:55;9.52;;;5.25;;
14080;SDS011;7116;52.152;5.392;2023-03-20T10:50:30;10.57;;;4.70;;
14080;SDS011;7116;52.152;5.392;2023-03-20T10:52:56;14.60;;;5.70;;
14080;SDS011;7116;52.152;5.392;2023-03-20T10:55:28;16.52;;;7.20;;
14080;SDS011;7116;52.152;5.392;2023-03-20T10:57:56;14.63;;;5.88;;
14080;SDS011;7116;52.152;5.392;2023-03-20T11:00:24;11.88;;;5.90;;
14080;SDS011;7116;52.152;5.392;2023-03-20T11:02:50;18.40;;;5.90;;
14080;SDS011;7116;52.152;5.392;2023-03-20T11:05:27;12.07;;;6.30;;
14080;SDS011;7116;52.152;5.392;2023-03-20T11:08:07;14.52;;;6.50;;
14080;SDS011;7116;52.152;5.392;2023-03-20T11:10:33;13.75;;;6.38;;
14080;SDS011;7116;52.152;5.392;2023-03-20T11:13:03;14.70;;;6.55;;
14080;SDS011;7116;52.152;5.392;2023-03-20T11:15:38;13.38;;;6.28;;
14080;SDS011;7116;52.152;5.392;2023-03-20T11:18:04;12.97;;;6.40;;
14080;SDS011;7116;52.152;5.392;2023-03-20T11:20:34;15.93;;;6.93;;
14080;SDS011;7116;52.152;5.392;2023-03-20T11:23:02;19.23;;;7.25;;
14080;SDS011;7116;52.152;5.392;2023-03-20T11:25:29;15.35;;;7.53;;
14080;SDS011;7116;52.152;5.392;2023-03-20T11:27:55;17.98;;;7.60;;
14080;SDS011;7116;52.152;5.392;2023-03-20T11:30:20;17.17;;;8.60;;
14080;SDS011;7116;52.152;5.392;2023-03-20T11:32:46;16.10;;;7.93;;
14080;SDS011;7116;52.152;5.392;2023-03-20T11:37:50;18.70;;;7.22;;
14080;SDS011;7116;52.152;5.392;2023-03-20T11:42:50;17.10;;;7.77;;
14080;SDS011;7116;52.152;5.392;2023-03-20T11:45:16;16.80;;;8.45;;
14080;SDS011;7116;52.152;5.392;2023-03-20T11:47:42;16.63;;;8.20;;
14080;SDS011;7116;52.152;5.392;2023-03-20T11:50:29;21.97;;;8.70;;
14080;SDS011;7116;52.152;5.392;2023-03-20T11:52:55;17.58;;;9.10;;
14080;SDS011;7116;52.152;5.392;2023-03-20T11:55:27;21.37;;;9.70;;
14080;SDS011;7116;52.152;5.392;2023-03-20T11:58:13;19.33;;;9.90;;
14080;SDS011;7116;52.152;5.392;2023-03-20T12:00:41;19.60;;;9.95;;
14080;SDS011;7116;52.152;5.392;2023-03-20T12:06:14;18.20;;;9.80;;
14080;SDS011;7116;52.152;5.392;2023-03-20T12:08:40;20.77;;;9.17;;
14080;SDS011;7116;52.152;5.392;2023-03-20T12:11:16;19.10;;;8.60;;
14080;SDS011;7116;52.152;5.392;2023-03-20T12:13:43;17.95;;;9.13;;
14080;SDS011;7116;52.152;5.392;2023-03-20T12:16:12;17.17;;;9.75;;
14080;SDS011;7116;52.152;5.392;2023-03-20T12:18:43;17.88;;;7.43;;
14080;SDS011;7116;52.152;5.392;2023-03-20T12:21:11;20.70;;;10.57;;
14080;SDS011;7116;52.152;5.392;2023-03-20T12:23:44;23.73;;;10.55;;
14080;SDS011;7116;52.152;5.392;2023-03-20T12:28:56;20.13;;;10.13;;
14080;SDS011;7116;52.152;5.392;2023-03-20T12:33:48;21.40;;;10.13;;
14080;SDS011;7116;52.152;5.392;2023-03-20T12:36:17;17.83;;;8.33;;
14080;SDS011;7116;52.152;5.392;2023-03-20T12:38:43;16.92;;;9.25;;
14080;SDS011;7116;52.152;5.392;2023-03-20T12:41:17;25.98;;;10.32;;
14080;SDS011;7116;52.152;5.392;2023-03-20T12:58:38;24.00;;;10.60;;
14080;SDS011;7116;52.152;5.392;2023-03-20T13:06:42;15.90;;;8.13;;
14080;SDS011;7116;52.152;5.392;2023-03-20T13:17:01;19.33;;;10.05;;
14080;SDS011;7116;52.152;5.392;2023-03-20T13:19:34;20.65;;;9.95;;
14080;SDS011;7116;52.152;5.392;2023-03-20T13:22:05;16.25;;;9.20;;
14080;SDS011;7116;52.152;5.392;2023-03-20T13:29:27;25.20;;;9.37;;
14080;SDS011;7116;52.152;5.392;2023-03-20T13:34:26;19.55;;;9.75;;
14080;SDS011;7116;52.152;5.392;2023-03-20T13:37:27;12.82;;;7.63;;
14080;SDS011;7116;52.152;5.392;2023-03-20T13:39:46;22.55;;;10.18;;
14080;SDS011;7116;52.152;5.392;2023-03-20T13:42:16;20.20;;;11.03;;
14080;SDS011;7116;52.152;5.392;2023-03-20T13:44:42;18.23;;;8.90;;
14080;SDS011;7116;52.152;5.392;2023-03-20T13:47:09;18.88;;;9.57;;
14080;SDS011;7116;52.152;5.392;2023-03-20T13:49:36;16.23;;;9.40;;
14080;SDS011;7116;52.152;5.392;2023-03-20T13:52:13;19.00;;;10.25;;
14080;SDS011;7116;52.152;5.392;2023-03-20T13:54:50;20.80;;;9.05;;
14080;SDS011;7116;52.152;5.392;2023-03-20T13:57:23;18.80;;;9.38;;
14080;SDS011;7116;52.152;5.392;2023-03-20T14:00:08;21.05;;;9.95;;
14080;SDS011;7116;52.152;5.392;2023-03-20T14:05:19;20.15;;;9.40;;
14080;SDS011;7116;52.152;5.392;2023-03-20T14:07:46;21.60;;;10.13;;
14080;SDS011;7116;52.152;5.392;2023-03-20T14:12:50;17.38;;;10.43;;
14080;SDS011;7116;52.152;5.392;2023-03-20T14:15:18;18.85;;;10.00;;
14080;SDS011;7116;52.152;5.392;2023-03-20T14:17:43;21.67;;;9.88;;
14080;SDS011;7116;52.152;5.392;2023-03-20T14:20:21;22.93;;;8.90;;
14080;SDS011;7116;52.152;5.392;2023-03-20T14:22:50;15.52;;;9.65;;
14080;SDS011;7116;52.152;5.392;2023-03-20T14:25:16;17.47;;;8.63;;
14080;SDS011;7116;52.152;5.392;2023-03-20T14:27:59;16.17;;;9.95;;
14080;SDS011;7116;52.152;5.392;2023-03-20T14:32:59;17.00;;;8.70;;
14080;SDS011;7116;52.152;5.392;2023-03-20T14:35:25;19.20;;;9.50;;
14080;SDS011;7116;52.152;5.392;2023-03-20T14:38:00;18.38;;;9.77;;
14080;SDS011;7116;52.152;5.392;2023-03-20T14:40:32;16.50;;;8.57;;
14080;SDS011;7116;52.152;5.392;2023-03-20T14:43:03;16.05;;;7.60;;
14080;SDS011;7116;52.152;5.392;2023-03-20T14:45:34;17.80;;;9.25;;
14080;SDS011;7116;52.152;5.392;2023-03-20T14:50:52;16.23;;;8.68;;
14080;SDS011;7116;52.152;5.392;2023-03-20T14:53:24;19.17;;;10.93;;
14080;SDS011;7116;52.152;5.392;2023-03-20T14:58:37;18.80;;;9.90;;
14080;SDS011;7116;52.152;5.392;2023-03-20T15:01:13;16.55;;;10.00;;
14080;SDS011;7116;52.152;5.392;2023-03-20T15:03:39;17.37;;;9.80;;
14080;SDS011;7116;52.152;5.392;2023-03-20T15:06:05;14.30;;;9.77;;
14080;SDS011;7116;52.152;5.392;2023-03-20T15:08:32;15.82;;;9.27;;
14080;SDS011;7116;52.152;5.392;2023-03-20T15:10:59;15.23;;;8.50;;
14080;SDS011;7116;52.152;5.392;2023-03-20T15:13:25;13.93;;;9.32;;
14080;SDS011;7116;52.152;5.392;2023-03-20T15:15:56;13.15;;;8.40;;
14080;SDS011;7116;52.152;5.392;2023-03-20T15:18:22;14.23;;;9.25;;
14080;SDS011;7116;52.152;5.392;2023-03-20T15:20:48;10.77;;;8.32;;
14080;SDS011;7116;52.152;5.392;2023-03-20T15:23:13;14.00;;;8.40;;
14080;SDS011;7116;52.152;5.392;2023-03-20T15:25:39;12.03;;;9.07;;
14080;SDS011;7116;52.152;5.392;2023-03-20T15:28:07;14.53;;;8.87;;
14080;SDS011;7116;52.152;5.392;2023-03-20T15:30:36;15.45;;;8.02;;
14080;SDS011;7116;52.152;5.392;2023-03-20T15:33:02;14.25;;;9.45;;
14080;SDS011;7116;52.152;5.392;2023-03-20T15:35:28;13.10;;;9.10;;
14080;SDS011;7116;52.152;5.392;2023-03-20T15:37:53;11.25;;;7.72;;
14080;SDS011;7116;52.152;5.392;2023-03-20T15:40:22;15.07;;;8.47;;
14080;SDS011;7116;52.152;5.392;2023-03-20T15:43:10;12.35;;;7.80;;
14080;SDS011;7116;52.152;5.392;2023-03-20T15:45:36;18.75;;;8.90;;
14080;SDS011;7116;52.152;5.392;2023-03-20T15:48:04;14.07;;;7.97;;
14080;SDS011;7116;52.152;5.392;2023-03-20T15:50:33;11.98;;;8.35;;
14080;SDS011;7116;52.152;5.392;2023-03-20T15:52:59;14.73;;;8.17;;
14080;SDS011;7116;52.152;5.392;2023-03-20T15:55:25;12.00;;;8.68;;
14080;SDS011;7116;52.152;5.392;2023-03-20T15:57:52;11.68;;;8.20;;
14080;SDS011;7116;52.152;5.392;2023-03-20T16:00:23;14.18;;;8.38;;
14080;SDS011;7116;52.152;5.392;2023-03-20T16:02:50;12.57;;;7.85;;
14080;SDS011;7116;52.152;5.392;2023-03-20T16:05:16;12.30;;;8.75;;
14080;SDS011;7116;52.152;5.392;2023-03-20T16:07:42;12.45;;;8.40;;
14080;SDS011;7116;52.152;5.392;2023-03-20T16:10:20;10.87;;;8.40;;
14080;SDS011;7116;52.152;5.392;2023-03-20T16:12:51;14.93;;;9.03;;
14080;SDS011;7116;52.152;5.392;2023-03-20T16:15:18;16.23;;;9.57;;
14080;SDS011;7116;52.152;5.392;2023-03-20T16:17:44;13.20;;;8.65;;
14080;SDS011;7116;52.152;5.392;2023-03-20T16:20:19;16.25;;;9.63;;
14080;SDS011;7116;52.152;5.392;2023-03-20T16:22:45;12.23;;;8.77;;
14080;SDS011;7116;52.152;5.392;2023-03-20T16:25:13;15.68;;;10.60;;
14080;SDS011;7116;52.152;5.392;2023-03-20T16:27:38;21.98;;;10.18;;
14080;SDS011;7116;52.152;5.392;2023-03-20T16:30:07;13.18;;;10.18;;
14080;SDS011;7116;52.152;5.392;2023-03-20T16:32:37;20.07;;;9.43;;
14080;SDS011;7116;52.152;5.392;2023-03-20T16:35:05;19.35;;;11.15;;
14080;SDS011;7116;52.152;5.392;2023-03-20T16:37:42;16.42;;;11.38;;
14080;SDS011;7116;52.152;5.392;2023-03-20T16:42:45;16.63;;;11.20;;
14080;SDS011;7116;52.152;5.392;2023-03-20T16:45:15;20.43;;;11.93;;
14080;SDS011;7116;52.152;5.392;2023-03-20T16:47:41;18.40;;;11.27;;
14080;SDS011;7116;52.152;5.392;2023-03-20T16:50:11;16.70;;;11.38;;
14080;SDS011;7116;52.152;5.392;2023-03-20T16:52:39;19.93;;;13.37;;
14080;SDS011;7116;52.152;5.392;2023-03-20T16:55:05;16.52;;;11.45;;
14080;SDS011;7116;52.152;5.392;2023-03-20T16:57:35;20.60;;;11.18;;